Terminal Aerodrome Forecast
Issued by NWS

Home | Current Version | Previous Version | Text Only | Print | Product List | Glossary On
Versions: 1 2 3 4 5 6 7 8 9 10 11 12 13 14 15
712
FTUS41 KPBZ 081122
TAFFKL
TAF
KFKL 081122Z 0812/0912 26012G22KT P6SM SCT015 OVC025
      TEMPO 0812/0815 BKN015
     FM090600 25010G20KT 2SM -SHSN OVC025
      AMD NOT SKED=

USA.gov is the U.S. government's official web portal to all federal, state and local government web resources and services.